createdAt,value
2016-11-08T00:00:09.691Z,1004.18
2016-11-08T00:00:19.685Z,1004.23
2016-11-08T00:00:29.680Z,1004.2
2016-11-08T00:00:39.673Z,1004.21
2016-11-08T00:00:49.667Z,1004.2
2016-11-08T00:00:59.660Z,1004.22
2016-11-08T00:01:09.655Z,1004.18
2016-11-08T00:01:19.648Z,1004.2
2016-11-08T00:01:29.641Z,1004.18
2016-11-08T00:01:39.636Z,1004.15
2016-11-08T00:01:49.628Z,1004.19
2016-11-08T00:01:59.623Z,1004.15
2016-11-08T00:02:09.616Z,1004.18
2016-11-08T00:02:19.611Z,1004.17
2016-11-08T00:02:29.602Z,1004.16
2016-11-08T00:02:39.597Z,1004.18
2016-11-08T00:02:49.592Z,1004.17
2016-11-08T00:02:59.585Z,1004.15
2016-11-08T00:03:09.611Z,1004.17
2016-11-08T00:03:19.573Z,1004.22
2016-11-08T00:03:29.566Z,1004.11
2016-11-08T00:03:39.563Z,1004.13
2016-11-08T00:03:49.554Z,1004.2
2016-11-08T00:03:59.549Z,1004.18
2016-11-08T00:04:09.539Z,1004.15
2016-11-08T00:04:19.536Z,1004.15
2016-11-08T00:04:29.527Z,1004.14
2016-11-08T00:04:39.524Z,1004.13
2016-11-08T00:04:49.517Z,1004.16
2016-11-08T00:04:59.508Z,1004.2
2016-11-08T00:05:09.505Z,1004.1
2016-11-08T00:05:19.497Z,1004.1
2016-11-08T00:05:29.489Z,1004.1
2016-11-08T00:05:39.483Z,1004.13
2016-11-08T00:05:49.480Z,1004.1
2016-11-08T00:05:59.473Z,1004.2
2016-11-08T00:06:09.467Z,1004.13
2016-11-08T00:06:19.460Z,1004.15
2016-11-08T00:06:29.453Z,1004.13
2016-11-08T00:06:39.448Z,1004.12
2016-11-08T00:06:49.438Z,1004.15
2016-11-08T00:06:59.436Z,1004.1
2016-11-08T00:07:09.433Z,1004.18
2016-11-08T00:07:19.423Z,1004.16
2016-11-08T00:07:29.417Z,1004.15
2016-11-08T00:07:39.411Z,1004.12
2016-11-08T00:07:49.403Z,1004.18
2016-11-08T00:07:59.396Z,1004.16
2016-11-08T00:08:09.388Z,1004.11
2016-11-08T00:08:19.385Z,1004.12
2016-11-08T00:08:29.380Z,1004.17
2016-11-08T00:08:39.373Z,1004.11
2016-11-08T00:08:49.364Z,1004.14
2016-11-08T00:08:59.361Z,1004.14
2016-11-08T00:09:09.353Z,1004.18
2016-11-08T00:09:19.346Z,1004.15
2016-11-08T00:09:29.341Z,1004.15
2016-11-08T00:09:39.335Z,1004.2
2016-11-08T00:09:49.329Z,1004.16
2016-11-08T00:09:59.322Z,1004.17
2016-11-08T00:10:09.316Z,1004.15
2016-11-08T00:10:19.310Z,1004.19
2016-11-08T00:10:29.302Z,1004.18
2016-11-08T00:10:39.298Z,1004.13
2016-11-08T00:10:49.290Z,1004.2
2016-11-08T00:10:59.284Z,1004.14
2016-11-08T00:11:09.280Z,1004.16
2016-11-08T00:11:19.271Z,1004.15
2016-11-08T00:11:29.268Z,1004.17
2016-11-08T00:11:39.259Z,1004.14
2016-11-08T00:11:49.254Z,1004.13
2016-11-08T00:11:59.247Z,1004.14
2016-11-08T00:12:09.240Z,1004.16
2016-11-08T00:12:19.233Z,1004.14
2016-11-08T00:12:29.228Z,1004.14
2016-11-08T00:12:39.221Z,1004.17
2016-11-08T00:12:49.216Z,1004.17
2016-11-08T00:12:59.545Z,1004.16
2016-11-08T00:13:09.202Z,1004.14
2016-11-08T00:13:19.205Z,1004.17
2016-11-08T00:13:29.190Z,1004.13
2016-11-08T00:13:39.184Z,1004.14
2016-11-08T00:13:49.183Z,1004.18
2016-11-08T00:13:59.172Z,1004.19
2016-11-08T00:14:09.165Z,1004.17
2016-11-08T00:14:19.159Z,1004.13
2016-11-08T00:14:29.152Z,1004.13
2016-11-08T00:14:39.148Z,1004.18
2016-11-08T00:14:49.141Z,1004.21
2016-11-08T00:14:59.135Z,1004.13
2016-11-08T00:15:09.128Z,1004.16
2016-11-08T00:15:19.122Z,1004.17
2016-11-08T00:15:29.114Z,1004.13
2016-11-08T00:15:39.108Z,1004.16
2016-11-08T00:15:49.102Z,1004.13
2016-11-08T00:15:59.097Z,1004.15
2016-11-08T00:16:09.091Z,1004.12
2016-11-08T00:16:19.085Z,1004.19
2016-11-08T00:16:29.078Z,1004.17
2016-11-08T00:16:39.072Z,1004.15
2016-11-08T00:16:49.065Z,1004.11
2016-11-08T00:16:59.060Z,1004.14
2016-11-08T00:17:09.053Z,1004.13
2016-11-08T00:17:19.048Z,1004.15
2016-11-08T00:17:29.041Z,1004.15
2016-11-08T00:17:39.034Z,1004.12
2016-11-08T00:17:49.029Z,1004.11
2016-11-08T00:17:59.020Z,1004.09
2016-11-08T00:18:09.015Z,1004.13
2016-11-08T00:18:19.011Z,1004.15
2016-11-08T00:18:29.004Z,1004.14
2016-11-08T00:18:38.998Z,1004.09
2016-11-08T00:18:48.989Z,1004.16
2016-11-08T00:18:58.984Z,1004.12
2016-11-08T00:19:08.979Z,1004.13
2016-11-08T00:19:19.309Z,1004.12
2016-11-08T00:19:28.966Z,1004.1
2016-11-08T00:19:38.959Z,1004.12
2016-11-08T00:19:48.953Z,1004.14
2016-11-08T00:19:58.945Z,1004.09
2016-11-08T00:20:08.940Z,1004.08
2016-11-08T00:20:18.933Z,1004.12
2016-11-08T00:20:28.929Z,1004.08
2016-11-08T00:20:38.919Z,1004.12
2016-11-08T00:20:48.915Z,1004.1
2016-11-08T00:20:58.909Z,1004.12
2016-11-08T00:21:08.904Z,1004.11
2016-11-08T00:21:18.896Z,1004.16
2016-11-08T00:21:28.914Z,1004.08
2016-11-08T00:21:38.883Z,1004.11
2016-11-08T00:21:48.878Z,1004.09
2016-11-08T00:21:58.873Z,1004.11
2016-11-08T00:22:08.866Z,1004.1
2016-11-08T00:22:18.860Z,1004.1
2016-11-08T00:22:28.852Z,1004.13
2016-11-08T00:22:38.847Z,1004.18
2016-11-08T00:22:48.840Z,1004.09
2016-11-08T00:22:58.833Z,1004.08
2016-11-08T00:23:08.827Z,1004.14
2016-11-08T00:23:18.822Z,1004.09
2016-11-08T00:23:28.817Z,1004.08
2016-11-08T00:23:38.809Z,1004.09
2016-11-08T00:23:48.802Z,1004.08
2016-11-08T00:23:58.795Z,1004.11
2016-11-08T00:24:08.789Z,1004.14
2016-11-08T00:24:18.785Z,1004.07
2016-11-08T00:24:28.778Z,1004.08
2016-11-08T00:24:38.795Z,1004.1
2016-11-08T00:24:48.766Z,1004.08
2016-11-08T00:24:58.759Z,1004.09
2016-11-08T00:25:08.768Z,1004.06
2016-11-08T00:25:18.747Z,1004.11
2016-11-08T00:25:28.740Z,1004.12
2016-11-08T00:25:38.735Z,1004.06
2016-11-08T00:25:48.728Z,1004.12
2016-11-08T00:25:58.719Z,1004.11
2016-11-08T00:26:08.716Z,1004.06
2016-11-08T00:26:18.711Z,1004.08
2016-11-08T00:26:28.702Z,1004.08
2016-11-08T00:26:38.696Z,1004.08
2016-11-08T00:26:48.713Z,1004.08
2016-11-08T00:26:58.684Z,1004.1
2016-11-08T00:27:08.678Z,1004.05
2016-11-08T00:27:18.672Z,1004.06
2016-11-08T00:27:28.666Z,1004.09
2016-11-08T00:27:38.660Z,1004.08
2016-11-08T00:27:48.650Z,1004.09
2016-11-08T00:27:58.645Z,1004.08
2016-11-08T00:28:08.640Z,1004.04
2016-11-08T00:28:18.634Z,1004.1
2016-11-08T00:28:28.628Z,1004.08
2016-11-08T00:28:38.621Z,1004.04
2016-11-08T00:28:48.616Z,1004.12
2016-11-08T00:28:58.611Z,1004.06
2016-11-08T00:29:08.601Z,1004.08
2016-11-08T00:29:18.596Z,1004.07
2016-11-08T00:29:28.589Z,1004.15
2016-11-08T00:29:38.583Z,1004.15
2016-11-08T00:29:48.578Z,1004.13
2016-11-08T00:29:58.570Z,1004.1
2016-11-08T00:30:08.566Z,1004.06
2016-11-08T00:30:18.559Z,1004.09
2016-11-08T00:30:28.551Z,1004.12
2016-11-08T00:30:38.546Z,1004.03
2016-11-08T00:30:48.540Z,1004.1
2016-11-08T00:30:58.534Z,1004.08
2016-11-08T00:31:08.528Z,1004.09
2016-11-08T00:31:18.520Z,1004.1
2016-11-08T00:31:28.516Z,1004.07
2016-11-08T00:31:38.510Z,1004.11
2016-11-08T00:31:48.501Z,1004.07
2016-11-08T00:31:58.496Z,1004.06
2016-11-08T00:32:08.491Z,1004.07
2016-11-08T00:32:18.484Z,1004.07
2016-11-08T00:32:28.478Z,1004.04
2016-11-08T00:32:38.806Z,1004.07
2016-11-08T00:32:48.464Z,1004.1
2016-11-08T00:32:58.457Z,1004.05
2016-11-08T00:33:08.452Z,1004.1
2016-11-08T00:33:18.447Z,1004.07
2016-11-08T00:33:28.440Z,1004.09
2016-11-08T00:33:38.434Z,1004.12
2016-11-08T00:33:48.428Z,1004.04
2016-11-08T00:33:58.421Z,1004.11
2016-11-08T00:34:08.415Z,1004.07
2016-11-08T00:34:18.408Z,1004.12
2016-11-08T00:34:28.399Z,1004.07
2016-11-08T00:34:38.396Z,1004.18
2016-11-08T00:34:48.390Z,1004.11
2016-11-08T00:34:58.384Z,1004.07
2016-11-08T00:35:08.377Z,1004.09
2016-11-08T00:35:18.371Z,1004.12
2016-11-08T00:35:28.364Z,1004.13
2016-11-08T00:35:38.384Z,1004.12
2016-11-08T00:35:48.351Z,1004.11
2016-11-08T00:35:58.346Z,1004.12
2016-11-08T00:36:08.340Z,1004.09
2016-11-08T00:36:18.334Z,1004.11
2016-11-08T00:36:28.326Z,1004.13
2016-11-08T00:36:38.321Z,1004.12
2016-11-08T00:36:48.314Z,1004.14
2016-11-08T00:36:58.308Z,1004.12
2016-11-08T00:37:08.302Z,1004.17
2016-11-08T00:37:18.295Z,1004.08
2016-11-08T00:37:28.290Z,1004.14
2016-11-08T00:37:38.283Z,1004.13
2016-11-08T00:37:48.278Z,1004.18
2016-11-08T00:37:58.271Z,1004.13
2016-11-08T00:38:08.287Z,1004.14
2016-11-08T00:38:18.258Z,1004.09
2016-11-08T00:38:28.252Z,1004.14
2016-11-08T00:38:38.246Z,1004.13
2016-11-08T00:38:48.240Z,1004.15
2016-11-08T00:38:58.233Z,1004.17
2016-11-08T00:39:08.256Z,1004.12
2016-11-08T00:39:18.221Z,1004.19
2016-11-08T00:39:28.215Z,1004.13
2016-11-08T00:39:38.209Z,1004.17
2016-11-08T00:39:48.200Z,1004.11
2016-11-08T00:39:58.195Z,1004.2
2016-11-08T00:40:08.189Z,1004.2
2016-11-08T00:40:18.183Z,1004.13
2016-11-08T00:40:28.175Z,1004.19
2016-11-08T00:40:38.171Z,1004.19
2016-11-08T00:40:48.164Z,1004.17
2016-11-08T00:40:58.158Z,1004.17
2016-11-08T00:41:08.153Z,1004.18
2016-11-08T00:41:18.146Z,1004.14
2016-11-08T00:41:28.138Z,1004.19
2016-11-08T00:41:38.132Z,1004.16
2016-11-08T00:41:48.125Z,1004.19
2016-11-08T00:41:58.119Z,1004.18
2016-11-08T00:42:08.114Z,1004.22
2016-11-08T00:42:18.109Z,1004.18
2016-11-08T00:42:28.102Z,1004.2
2016-11-08T00:42:38.094Z,1004.21
2016-11-08T00:42:48.114Z,1004.21
2016-11-08T00:42:58.082Z,1004.18
2016-11-08T00:43:08.076Z,1004.22
2016-11-08T00:43:18.068Z,1004.19
2016-11-08T00:43:28.064Z,1004.18
2016-11-08T00:43:38.059Z,1004.19
2016-11-08T00:43:48.051Z,1004.21
2016-11-08T00:43:58.044Z,1004.19
2016-11-08T00:44:08.050Z,1004.15
2016-11-08T00:44:18.364Z,1004.22
2016-11-08T00:44:28.027Z,1004.16
2016-11-08T00:44:38.020Z,1004.18
2016-11-08T00:44:48.015Z,1004.18
2016-11-08T00:44:58.008Z,1004.21
2016-11-08T00:45:08.000Z,1004.21
2016-11-08T00:45:17.994Z,1004.26
2016-11-08T00:45:27.993Z,1004.22
2016-11-08T00:45:37.982Z,1004.22
2016-11-08T00:45:47.976Z,1004.21
2016-11-08T00:45:57.969Z,1004.24
2016-11-08T00:46:07.962Z,1004.23
2016-11-08T00:46:17.958Z,1004.21
2016-11-08T00:46:27.951Z,1004.22
2016-11-08T00:46:37.944Z,1004.23
2016-11-08T00:46:47.939Z,1004.16
2016-11-08T00:46:57.931Z,1004.25
2016-11-08T00:47:07.928Z,1004.22
2016-11-08T00:47:17.941Z,1004.24
2016-11-08T00:47:27.913Z,1004.19
2016-11-08T00:47:37.908Z,1004.24
2016-11-08T00:47:47.900Z,1004.17
2016-11-08T00:47:57.895Z,1004.21
2016-11-08T00:48:07.889Z,1004.16
2016-11-08T00:48:17.883Z,1004.22
2016-11-08T00:48:27.875Z,1004.21
2016-11-08T00:48:37.871Z,1004.22
2016-11-08T00:48:47.864Z,1004.18
2016-11-08T00:48:57.855Z,1004.18
2016-11-08T00:49:07.849Z,1004.17
2016-11-08T00:49:17.843Z,1004.2
2016-11-08T00:49:27.837Z,1004.23
2016-11-08T00:49:37.832Z,1004.2
2016-11-08T00:49:47.827Z,1004.11
2016-11-08T00:49:57.817Z,1004.19
2016-11-08T00:50:07.814Z,1004.17
2016-11-08T00:50:17.806Z,1004.23
2016-11-08T00:50:27.801Z,1004.19
2016-11-08T00:50:37.794Z,1004.2
2016-11-08T00:50:47.789Z,1004.19
2016-11-08T00:50:57.781Z,1004.16
2016-11-08T00:51:07.779Z,1004.22
2016-11-08T00:51:17.768Z,1004.25
2016-11-08T00:51:27.761Z,1004.2
2016-11-08T00:51:37.756Z,1004.16
2016-11-08T00:51:47.751Z,1004.21
2016-11-08T00:51:57.855Z,1004.25
2016-11-08T00:52:07.736Z,1004.18
2016-11-08T00:52:17.731Z,1004.21
2016-11-08T00:52:27.726Z,1004.2
2016-11-08T00:52:37.717Z,1004.18
2016-11-08T00:52:47.711Z,1004.2
2016-11-08T00:52:57.707Z,1004.21
2016-11-08T00:53:07.701Z,1004.16
2016-11-08T00:53:17.695Z,1004.17
2016-11-08T00:53:27.714Z,1004.13
2016-11-08T00:53:37.682Z,1004.19
2016-11-08T00:53:47.675Z,1004.15
2016-11-08T00:53:57.668Z,1004.15
2016-11-08T00:54:07.689Z,1004.16
2016-11-08T00:54:17.662Z,1004.18
2016-11-08T00:54:27.651Z,1004.16
2016-11-08T00:54:37.644Z,1004.16
2016-11-08T00:54:47.638Z,1004.17
2016-11-08T00:54:57.631Z,1004.17
2016-11-08T00:55:07.625Z,1004.12
2016-11-08T00:55:17.618Z,1004.17
2016-11-08T00:55:27.614Z,1004.19
2016-11-08T00:55:37.607Z,1004.22
2016-11-08T00:55:47.600Z,1004.2
2016-11-08T00:55:57.803Z,1004.25
2016-11-08T00:56:07.585Z,1004.17
2016-11-08T00:56:17.583Z,1004.23
2016-11-08T00:56:27.575Z,1004.16
2016-11-08T00:56:37.568Z,1004.19
2016-11-08T00:56:47.561Z,1004.21
2016-11-08T00:56:57.556Z,1004.18
2016-11-08T00:57:07.549Z,1004.17
2016-11-08T00:57:17.545Z,1004.16
2016-11-08T00:57:27.537Z,1004.16
2016-11-08T00:57:37.530Z,1004.2
2016-11-08T00:57:47.525Z,1004.18
2016-11-08T00:57:57.519Z,1004.21
2016-11-08T00:58:07.513Z,1004.18
2016-11-08T00:58:17.507Z,1004.2
2016-11-08T00:58:27.499Z,1004.21
2016-11-08T00:58:37.495Z,1004.21
2016-11-08T00:58:47.487Z,1004.16
2016-11-08T00:58:57.479Z,1004.16
2016-11-08T00:59:07.475Z,1004.2
2016-11-08T00:59:17.802Z,1004.2
2016-11-08T00:59:27.463Z,1004.19
2016-11-08T00:59:37.458Z,1004.21
2016-11-08T00:59:47.450Z,1004.16
2016-11-08T00:59:57.444Z,1004.17
2016-11-08T01:00:07.457Z,1004.14
2016-11-08T01:00:17.430Z,1004.14
2016-11-08T01:00:27.455Z,1004.16
2016-11-08T01:00:37.417Z,1004.17
2016-11-08T01:00:47.412Z,1004.2
2016-11-08T01:00:57.406Z,1004.15
2016-11-08T01:01:07.400Z,1004.19
2016-11-08T01:01:17.392Z,1004.2
2016-11-08T01:01:27.386Z,1004.17
2016-11-08T01:01:37.380Z,1004.18
2016-11-08T01:01:47.374Z,1004.15
2016-11-08T01:01:57.368Z,1004.11
2016-11-08T01:02:07.362Z,1004.12
2016-11-08T01:02:17.355Z,1004.13
2016-11-08T01:02:27.348Z,1004.13
2016-11-08T01:02:37.342Z,1004.12
2016-11-08T01:02:47.338Z,1004.16
2016-11-08T01:02:57.331Z,1004.17
2016-11-08T01:03:07.324Z,1004.17
2016-11-08T01:03:17.316Z,1004.17
2016-11-08T01:03:27.312Z,1004.19
2016-11-08T01:03:37.305Z,1004.09
2016-11-08T01:03:47.299Z,1004.26
2016-11-08T01:03:57.400Z,1004.17
2016-11-08T01:04:07.286Z,1004.19
2016-11-08T01:04:17.382Z,1004.18
2016-11-08T01:04:27.273Z,1004.13
2016-11-08T01:04:37.268Z,1004.16
2016-11-08T01:04:47.263Z,1004.13
2016-11-08T01:04:57.271Z,1004.14
2016-11-08T01:05:07.250Z,1004.15
2016-11-08T01:05:17.242Z,1004.19
2016-11-08T01:05:27.235Z,1004.14
2016-11-08T01:05:37.229Z,1004.14
2016-11-08T01:05:47.222Z,1004.14
2016-11-08T01:05:57.217Z,1004.12
2016-11-08T01:06:07.210Z,1004.17
2016-11-08T01:06:17.203Z,1004.15
2016-11-08T01:06:27.198Z,1004.12
2016-11-08T01:06:37.191Z,1004.14
2016-11-08T01:06:47.185Z,1004.16
2016-11-08T01:06:57.180Z,1004.16
2016-11-08T01:07:07.174Z,1004.2
2016-11-08T01:07:17.167Z,1004.13
2016-11-08T01:07:27.160Z,1004.16
2016-11-08T01:07:37.156Z,1004.14
2016-11-08T01:07:47.148Z,1004.14
2016-11-08T01:07:57.140Z,1004.14
2016-11-08T01:08:07.136Z,1004.12
2016-11-08T01:08:17.129Z,1004.15
2016-11-08T01:08:27.124Z,1004.15
2016-11-08T01:08:37.117Z,1004.14
2016-11-08T01:08:47.110Z,1004.14
2016-11-08T01:08:57.106Z,1004.17
2016-11-08T01:09:07.098Z,1004.19
2016-11-08T01:09:17.092Z,1004.14
2016-11-08T01:09:27.084Z,1004.15
2016-11-08T01:09:37.082Z,1004.15
2016-11-08T01:09:47.074Z,1004.13
2016-11-08T01:09:57.067Z,1004.18
2016-11-08T01:10:07.059Z,1004.14
2016-11-08T01:10:17.054Z,1004.16
2016-11-08T01:10:27.047Z,1004.16
2016-11-08T01:10:37.042Z,1004.19
2016-11-08T01:10:47.036Z,1004.15
2016-11-08T01:10:57.027Z,1004.12
2016-11-08T01:11:07.357Z,1004.17
2016-11-08T01:11:17.016Z,1004.1
2016-11-08T01:11:27.010Z,1004.17
2016-11-08T01:11:37.004Z,1004.15
2016-11-08T01:11:46.997Z,1004.11
2016-11-08T01:11:57.016Z,1004.14
2016-11-08T01:12:06.985Z,1004.11
2016-11-08T01:12:16.978Z,1004.14
2016-11-08T01:12:26.971Z,1004.19
2016-11-08T01:12:36.963Z,1004.09
2016-11-08T01:12:46.961Z,1004.12
2016-11-08T01:12:56.954Z,1004.13
2016-11-08T01:13:06.973Z,1004.1
2016-11-08T01:13:16.942Z,1004.13
2016-11-08T01:13:26.958Z,1004.11
2016-11-08T01:13:36.929Z,1004.12
2016-11-08T01:13:46.923Z,1004.14
2016-11-08T01:13:56.916Z,1004.14
2016-11-08T01:14:06.910Z,1004.11
2016-11-08T01:14:16.903Z,1004.08
2016-11-08T01:14:26.897Z,1004.09
2016-11-08T01:14:36.890Z,1004.11
2016-11-08T01:14:46.882Z,1004.1
2016-11-08T01:14:56.879Z,1004.12
2016-11-08T01:15:06.873Z,1004.1
2016-11-08T01:15:16.866Z,1004.16
2016-11-08T01:15:26.859Z,1004.1
2016-11-08T01:15:36.855Z,1004.13
2016-11-08T01:15:46.876Z,1004.13
2016-11-08T01:15:56.841Z,1004.14
2016-11-08T01:16:06.834Z,1004.16
2016-11-08T01:16:16.825Z,1004.08
2016-11-08T01:16:26.851Z,1004.11
2016-11-08T01:16:36.816Z,1004.14
2016-11-08T01:16:46.810Z,1004.09
2016-11-08T01:16:56.803Z,1004.11
2016-11-08T01:17:06.797Z,1004.05
2016-11-08T01:17:16.790Z,1004.1
2016-11-08T01:17:26.783Z,1004.07
2016-11-08T01:17:36.779Z,1004.11
2016-11-08T01:17:46.773Z,1004.08
2016-11-08T01:17:56.766Z,1004.11
2016-11-08T01:18:06.760Z,1004.1
2016-11-08T01:18:16.753Z,1004.09
2016-11-08T01:18:26.747Z,1004.11
2016-11-08T01:18:36.740Z,1004.12
2016-11-08T01:18:46.732Z,1004.1
2016-11-08T01:18:57.062Z,1004.12
2016-11-08T01:19:06.722Z,1004.06
2016-11-08T01:19:16.716Z,1004.08
2016-11-08T01:19:26.709Z,1004.09
2016-11-08T01:19:36.703Z,1004.08
2016-11-08T01:19:46.697Z,1004.09
2016-11-08T01:19:56.690Z,1004.07
2016-11-08T01:20:07.020Z,1004.11
2016-11-08T01:20:16.679Z,1004.07
2016-11-08T01:20:26.670Z,1004.09
2016-11-08T01:20:36.665Z,1004.09
2016-11-08T01:20:46.658Z,1004.03
2016-11-08T01:20:56.652Z,1004.08
2016-11-08T01:21:06.646Z,1004.11
2016-11-08T01:21:16.641Z,1004.07
2016-11-08T01:21:26.633Z,1004.04
2016-11-08T01:21:36.626Z,1004.09
2016-11-08T01:21:46.623Z,1004.08
2016-11-08T01:21:56.615Z,1004.1
2016-11-08T01:22:06.608Z,1004.06
2016-11-08T01:22:16.603Z,1004.07
2016-11-08T01:22:26.596Z,1004.05
2016-11-08T01:22:36.589Z,1004.06
2016-11-08T01:22:46.582Z,1004.05
2016-11-08T01:22:56.577Z,1004.1
2016-11-08T01:23:06.571Z,1004.11
2016-11-08T01:23:16.563Z,1004.07
2016-11-08T01:23:26.558Z,1004.09
2016-11-08T01:23:36.552Z,1004.08
2016-11-08T01:23:46.553Z,1004.06
2016-11-08T01:23:56.538Z,1004.03
2016-11-08T01:24:06.531Z,1004.07
2016-11-08T01:24:16.528Z,1004.07
2016-11-08T01:24:26.522Z,1004.06
2016-11-08T01:24:36.512Z,1004.07
2016-11-08T01:24:46.507Z,1004.06
2016-11-08T01:24:56.501Z,1004.06
2016-11-08T01:25:06.496Z,1004.07
2016-11-08T01:25:16.490Z,1004.05
2016-11-08T01:25:26.483Z,1004.1
2016-11-08T01:25:36.476Z,1004.05
2016-11-08T01:25:46.471Z,1004.03
2016-11-08T01:25:56.464Z,1004.07
2016-11-08T01:26:06.458Z,1004.05
2016-11-08T01:26:16.453Z,1004.02
2016-11-08T01:26:26.468Z,1004.03
2016-11-08T01:26:36.440Z,1004.02
2016-11-08T01:26:46.433Z,1004.06
2016-11-08T01:26:56.428Z,1004.07
2016-11-08T01:27:06.421Z,1004.04
2016-11-08T01:27:16.412Z,1004.03
2016-11-08T01:27:26.407Z,1003.97
2016-11-08T01:27:36.400Z,1004.04
2016-11-08T01:27:46.500Z,1004.02
2016-11-08T01:27:56.389Z,1004.02
2016-11-08T01:28:06.383Z,1003.95
2016-11-08T01:28:16.376Z,1003.99
2016-11-08T01:28:26.370Z,1004.01
2016-11-08T01:28:36.362Z,1004
2016-11-08T01:28:46.358Z,1003.93
2016-11-08T01:28:56.352Z,1004.02
2016-11-08T01:29:06.344Z,1003.99
2016-11-08T01:29:16.338Z,1004.01
2016-11-08T01:29:26.331Z,1004.01
2016-11-08T01:29:36.324Z,1003.99
2016-11-08T01:29:46.320Z,1003.98
2016-11-08T01:29:56.311Z,1004.03
2016-11-08T01:30:06.307Z,1003.94
2016-11-08T01:30:16.302Z,1003.97
2016-11-08T01:30:26.296Z,1003.99
2016-11-08T01:30:36.289Z,1003.98
2016-11-08T01:30:46.282Z,1003.99
2016-11-08T01:30:56.274Z,1003.95
2016-11-08T01:31:06.270Z,1003.98
2016-11-08T01:31:16.263Z,1003.97
2016-11-08T01:31:26.257Z,1003.98
2016-11-08T01:31:36.274Z,1004
2016-11-08T01:31:46.245Z,1003.95
2016-11-08T01:31:56.574Z,1003.95
2016-11-08T01:32:06.230Z,1003.97
2016-11-08T01:32:16.225Z,1003.96
2016-11-08T01:32:26.220Z,1004.01
2016-11-08T01:32:36.213Z,1004
2016-11-08T01:32:46.208Z,1003.99
2016-11-08T01:32:56.199Z,1004
2016-11-08T01:33:06.195Z,1003.96
2016-11-08T01:33:16.188Z,1003.94
2016-11-08T01:33:26.181Z,1003.9
2016-11-08T01:33:36.175Z,1003.93
2016-11-08T01:33:46.169Z,1003.93
2016-11-08T01:33:56.163Z,1003.92
2016-11-08T01:34:06.157Z,1003.92
2016-11-08T01:34:16.150Z,1003.95
2016-11-08T01:34:26.144Z,1003.92
2016-11-08T01:34:36.137Z,1003.91
2016-11-08T01:34:46.133Z,1003.94
2016-11-08T01:34:56.126Z,1003.94
2016-11-08T01:35:06.119Z,1003.94
2016-11-08T01:35:16.113Z,1003.93
2016-11-08T01:35:26.104Z,1003.89
2016-11-08T01:35:36.125Z,1003.92
2016-11-08T01:35:46.093Z,1003.92
2016-11-08T01:35:56.088Z,1003.92
2016-11-08T01:36:06.082Z,1003.91
2016-11-08T01:36:16.075Z,1003.92
2016-11-08T01:36:26.095Z,1003.92
2016-11-08T01:36:36.063Z,1003.95
2016-11-08T01:36:46.058Z,1003.92
2016-11-08T01:36:56.050Z,1003.94
2016-11-08T01:37:06.043Z,1003.92
2016-11-08T01:37:16.038Z,1003.93
2016-11-08T01:37:26.031Z,1003.88
2016-11-08T01:37:36.023Z,1003.91
2016-11-08T01:37:46.019Z,1003.93
2016-11-08T01:37:56.116Z,1003.95
2016-11-08T01:38:06.007Z,1003.91
2016-11-08T01:38:16.001Z,1003.97
2016-11-08T01:38:25.994Z,1003.95
2016-11-08T01:38:35.988Z,1003.95
2016-11-08T01:38:45.981Z,1003.89
2016-11-08T01:38:55.975Z,1003.93
2016-11-08T01:39:05.968Z,1003.89
2016-11-08T01:39:15.962Z,1003.91
2016-11-08T01:39:25.956Z,1003.88
2016-11-08T01:39:35.950Z,1003.91
2016-11-08T01:39:45.943Z,1003.91
2016-11-08T01:39:55.938Z,1003.89
2016-11-08T01:40:05.931Z,1003.94
2016-11-08T01:40:15.923Z,1003.9
2016-11-08T01:40:25.918Z,1003.92
2016-11-08T01:40:35.912Z,1003.98
2016-11-08T01:40:45.905Z,1003.96
2016-11-08T01:40:55.899Z,1003.95
2016-11-08T01:41:05.893Z,1003.91
2016-11-08T01:41:15.887Z,1003.9
2016-11-08T01:41:25.880Z,1003.89
2016-11-08T01:41:35.875Z,1003.93
2016-11-08T01:41:45.871Z,1003.93
2016-11-08T01:41:55.859Z,1003.95
2016-11-08T01:42:05.855Z,1003.94
2016-11-08T01:42:15.850Z,1004.01
2016-11-08T01:42:25.844Z,1003.91
2016-11-08T01:42:35.838Z,1003.96
2016-11-08T01:42:45.828Z,1004
2016-11-08T01:42:55.824Z,1003.94
2016-11-08T01:43:05.818Z,1003.97
2016-11-08T01:43:15.811Z,1003.93
2016-11-08T01:43:25.805Z,1003.91
2016-11-08T01:43:35.799Z,1003.94
2016-11-08T01:43:45.817Z,1003.94
2016-11-08T01:43:55.787Z,1003.97
2016-11-08T01:44:05.777Z,1003.91
2016-11-08T01:44:15.777Z,1003.92
2016-11-08T01:44:25.768Z,1003.92
2016-11-08T01:44:35.760Z,1003.93
2016-11-08T01:44:45.756Z,1003.94
2016-11-08T01:44:55.750Z,1003.91
2016-11-08T01:45:05.743Z,1003.95
2016-11-08T01:45:15.737Z,1003.94
2016-11-08T01:45:25.757Z,1003.92
2016-11-08T01:45:35.723Z,1003.93
2016-11-08T01:45:45.716Z,1003.99
2016-11-08T01:45:55.711Z,1003.95
2016-11-08T01:46:05.706Z,1003.94
2016-11-08T01:46:15.699Z,1003.97
2016-11-08T01:46:25.693Z,1003.99
2016-11-08T01:46:35.686Z,1003.93
2016-11-08T01:46:45.679Z,1003.93
2016-11-08T01:46:55.673Z,1003.9
2016-11-08T01:47:05.665Z,1003.92
2016-11-08T01:47:15.660Z,1003.95
2016-11-08T01:47:25.656Z,1003.96
2016-11-08T01:47:35.649Z,1003.96
2016-11-08T01:47:45.665Z,1003.89
2016-11-08T01:47:55.635Z,1003.96
2016-11-08T01:48:05.629Z,1003.96
2016-11-08T01:48:15.623Z,1003.94
2016-11-08T01:48:25.619Z,1003.97
2016-11-08T01:48:35.612Z,1003.9
2016-11-08T01:48:45.605Z,1003.93
2016-11-08T01:48:55.599Z,1003.91
2016-11-08T01:49:05.593Z,1003.96
2016-11-08T01:49:15.921Z,1003.94
2016-11-08T01:49:25.579Z,1003.96
2016-11-08T01:49:35.574Z,1003.88
2016-11-08T01:49:45.568Z,1003.92
2016-11-08T01:49:55.560Z,1003.91
2016-11-08T01:50:05.556Z,1003.94
2016-11-08T01:50:15.547Z,1003.91
2016-11-08T01:50:25.541Z,1003.94
2016-11-08T01:50:35.534Z,1003.92
2016-11-08T01:50:45.531Z,1003.94
2016-11-08T01:50:55.521Z,1003.93
2016-11-08T01:51:05.517Z,1003.91
2016-11-08T01:51:15.510Z,1003.89
2016-11-08T01:51:25.504Z,1003.92
2016-11-08T01:51:35.500Z,1003.94
2016-11-08T01:51:45.492Z,1003.96
2016-11-08T01:51:55.484Z,1003.91
2016-11-08T01:52:05.480Z,1003.91
2016-11-08T01:52:15.474Z,1003.88
2016-11-08T01:52:25.467Z,1003.95
2016-11-08T01:52:35.461Z,1003.93
2016-11-08T01:52:45.454Z,1003.93
2016-11-08T01:52:55.449Z,1003.92
2016-11-08T01:53:05.442Z,1003.94
2016-11-08T01:53:15.434Z,1003.93
2016-11-08T01:53:25.429Z,1003.96
2016-11-08T01:53:35.422Z,1003.86
2016-11-08T01:53:45.418Z,1003.9
2016-11-08T01:53:55.411Z,1003.92
2016-11-08T01:54:05.405Z,1003.89
2016-11-08T01:54:15.396Z,1003.88
2016-11-08T01:54:25.389Z,1003.87
2016-11-08T01:54:35.386Z,1003.9
2016-11-08T01:54:45.378Z,1003.89
2016-11-08T01:54:55.372Z,1003.88
2016-11-08T01:55:05.701Z,1003.94
2016-11-08T01:55:15.358Z,1003.89
2016-11-08T01:55:25.354Z,1003.91
2016-11-08T01:55:35.454Z,1003.9
2016-11-08T01:55:45.340Z,1003.88
2016-11-08T01:55:55.336Z,1003.88
2016-11-08T01:56:05.329Z,1003.93
2016-11-08T01:56:15.323Z,1003.89
2016-11-08T01:56:25.318Z,1003.89
2016-11-08T01:56:35.309Z,1003.87
2016-11-08T01:56:45.302Z,1003.87
2016-11-08T01:56:55.297Z,1003.83
2016-11-08T01:57:05.292Z,1003.87
2016-11-08T01:57:15.284Z,1003.88
2016-11-08T01:57:25.279Z,1003.86
2016-11-08T01:57:35.271Z,1003.92
2016-11-08T01:57:45.267Z,1003.85
2016-11-08T01:57:55.260Z,1003.85
2016-11-08T01:58:05.254Z,1003.88
2016-11-08T01:58:15.248Z,1003.89
2016-11-08T01:58:25.241Z,1003.91
2016-11-08T01:58:35.234Z,1003.87
2016-11-08T01:58:45.229Z,1003.86
2016-11-08T01:58:55.222Z,1003.89
2016-11-08T01:59:05.217Z,1003.87
2016-11-08T01:59:15.210Z,1003.89
2016-11-08T01:59:25.201Z,1003.89
2016-11-08T01:59:35.223Z,1003.92
2016-11-08T01:59:45.190Z,1003.88
2016-11-08T01:59:55.185Z,1003.88
2016-11-08T02:00:05.178Z,1003.88
2016-11-08T02:00:15.172Z,1003.92
2016-11-08T02:00:25.166Z,1003.91
2016-11-08T02:00:35.161Z,1003.9
2016-11-08T02:00:45.259Z,1003.92
2016-11-08T02:00:55.148Z,1003.93
2016-11-08T02:01:05.139Z,1003.89
2016-11-08T02:01:15.134Z,1003.89
2016-11-08T02:01:28.160Z,1003.9